x

Ne Burgeo Bank (44255) Wave Buoy

2:00am - Tue 28th Jul 2015 All times are ADT. -3 hours from GMT.

  • Sig Wave height 2.6ft
  • Wind
    13mph, 16mph gusts
  • Sea Temp 55°f
  • Sea Pressure 1021.9mb
  • Ne Burgeo Bank
  • Ne Burgeo Bank

More Historic Weather Station data

Upgrade to MSW Pro to gain access to the past 30 days of data for over 8000 Wavebouys and Weather Stations around the globe.

Join Pro

Comparision Forecast

View Surf forecast
   
Tue 07/28 2:00am 2.5ft  -  13 16 mph 1021.9mb 55f
1:00am 2.5ft 8s 13 16 mph 1022.4mb 55f
12:00am 2.5ft 8s 11 16 mph 1022.7mb 55f
Mon 07/27 11:00pm 2.5ft 8s 11 13 mph 1022.9mb 55f
10:00pm 2.5ft 8s 11
mph
1023mb 55f
9:00pm 2.5ft 11s 9 11 mph 1023.1mb 55f
7:00pm 3ft 11s 11 13 mph 1023.1mb 55f
6:00pm 3ft 7s 13 16 mph 1023.2mb 55f
5:00pm 3ft 8s 13 18 mph 1023.2mb 55f
4:00pm 2.5ft 11s 11 13 mph 1023.5mb 55f
3:00pm 2.5ft 11s 13 16 mph 1023.7mb 55f
2:00pm 2.5ft  -  11 13 mph 1024mb 55f
1:00pm 2.5ft 11s 13 16 mph 1024.2mb 55f
12:00pm 2.5ft 8s 11 13 mph 1024.5mb 55f
11:00am 2.5ft 12s 9 11 mph 1024.3mb 55f
10:00am 2.5ft 11s 9 11 mph 1024.1mb 55f
9:00am 2.5ft 11s 7 11 mph 1024mb 55f
8:00am 2ft 11s 4 9 mph 1023.7mb 55f
7:00am 2.5ft 11s 7 11 mph 1023.5mb 55f
6:00am 2.5ft 12s 7 11 mph 1023.4mb 55f
5:00am 2.5ft 7s 4
mph
1023.2mb 55f
4:00am 2.5ft 7s 7 9 mph 1023.4mb 55f
3:00am 2.5ft 8s 7 9 mph 1023.3mb 55f
2:00am 2.5ft 11s 9 11 mph 1023.4mb 55f
1:00am 2.5ft 7s 9 13 mph 1023.6mb 55f
12:00am 2.5ft 8s 9 13 mph 1023.6mb 55f
Sun 07/26 11:00pm 2.5ft 12s 7 11 mph 1023.5mb 55f
10:00pm 2.5ft 12s 7 11 mph 1023.6mb 55f
9:00pm 2.5ft 11s 9 11 mph 1023.2mb 55f
8:00pm 2.5ft 11s 9
mph
1022.8mb 55f
7:00pm 2.5ft 12s 9 13 mph 1022.8mb 55f
6:00pm 2.5ft 11s 9 11 mph 1022.8mb 55f
5:00pm 2.5ft 11s 9 16 mph 1022.8mb 55f
4:00pm 2.5ft 11s 9 13 mph 1022.7mb 55f
3:00pm 2.5ft 12s 9 11 mph 1022.7mb 55f
2:00pm 2.5ft 9s 7 9 mph 1022.7mb 55f
1:00pm 2.5ft 12s 7 9 mph 1022.8mb 55f
12:00pm 2.5ft 12s 7
mph
1022.9mb 55f
11:00am 2.5ft 8s 7 9 mph 1022.9mb 54f
10:00am 2.5ft 12s 7 9 mph 1023mb 54f
9:00am 2.5ft 10s 7 9 mph 1022.6mb 54f
8:00am 2.5ft 10s 4 7 mph 1022mb 54f
7:00am 2.5ft 9s 2 9 mph 1021.6mb 54f
6:00am 2.5ft 11s 4 9 mph 1021.2mb 54f
5:00am 2.5ft 11s 4 7 mph 1021.1mb 54f
4:00am 2.5ft 11s 4 7 mph 1021.1mb 54f
3:00am 2.5ft 12s 2 7 mph 1021.2mb 54f
2:00am 2.5ft 11s 4 7 mph 1021.2mb 54f
1:00am 2.5ft 11s 2 4 mph 1021.1mb 54f
12:00am 2.5ft 12s 2 4 mph 1021.1mb 54f
Sat 07/25 11:00pm 2.5ft 11s 4
mph
1021.2mb 54f
10:00pm 2.5ft 10s 4 7 mph 1021.1mb 54f
9:00pm 2.5ft 10s 2 4 mph 1021mb 54f
8:00pm 2.5ft 8s 4 7 mph 1020.9mb 54f
7:00pm 2.5ft 8s 7 9 mph 1020.9mb 54f
6:00pm 2.5ft 9s 7 9 mph 1020.9mb 55f
5:00pm 3ft 8s 4 7 mph 1020.8mb 54f
4:00pm 3.5ft 8s 9 11 mph 1020.9mb 54f
3:00pm 3ft 8s 7 9 mph 1021mb 54f
2:00pm 3.5ft 12s 9 11 mph 1021.9mb 54f
1:00pm 3.5ft 9s 11 13 mph 1022.2mb 54f
12:00pm 3.5ft 9s 11 13 mph 1022.2mb 54f
11:00am 3.5ft 8s 13 16 mph 1022.4mb 54f
10:00am 3.5ft 9s 13 16 mph 1022.3mb 54f
9:00am 4ft  -  13 20 mph 1022mb 53f
8:00am 4ft 9s 13 18 mph 1021.6mb 54f
7:00am 4ft 8s 16 20 mph 1021.5mb 54f
6:00am 4ft 8s 18 22 mph 1020.8mb 54f
5:00am 4ft 8s 18 20 mph 1020.2mb 54f
4:00am 4.5ft 7s 18 20 mph 1019.6mb 54f
3:00am 4.5ft 9s 20 22 mph 1019.1mb 54f
2:00am  -   -  18
mph
1019.1mb -
1:00am 4.5ft 8s 18 20 mph 1019.2mb 54f
12:00am 5ft 8s 18 20 mph 1018.9mb 54f
Fri 07/24 11:00pm 5ft 8s 18 22 mph 1018.7mb 54f
10:00pm 4.5ft 8s 16 20 mph 1018.7mb 55f
9:00pm 4.5ft 9s 11 13 mph 1018.2mb 56f
8:00pm 4.5ft 9s 4
mph
1017mb 56f
7:00pm 4.5ft 10s 2
mph
1016.1mb 56f
6:00pm 4.5ft 10s  -  mph 1015.6mb 55f
5:00pm 4.5ft 10s 2 4 mph 1015.1mb 56f
4:00pm 4ft 10s 4 7 mph 1014.6mb 56f
3:00pm 3.5ft 9s 4 7 mph 1014.1mb 56f
2:00pm 3.5ft 10s 4 7 mph 1013.3mb 55f
1:00pm 4ft 10s 4
mph
1012.8mb 54f
12:00pm 4ft 10s 2 4 mph 1012.4mb 54f
11:00am 4.5ft 9s 4 7 mph 1012.2mb 54f
10:00am 4.5ft 10s 9 11 mph 1011.6mb 54f
9:00am 4.5ft 9s 11 13 mph 1011.2mb 54f
8:00am 4.5ft 11s 11 13 mph 1010.7mb 54f
7:00am 4.5ft 10s 11 13 mph 1009.7mb 54f